Main page
METAR-TAF:

METAR-TAF

Airports :

Teesside International Airport

Durham, England

latitude: 54-31N, longitude: 001-25W, elevation: 37 m

Current weather observation

The report was made 34 minutes ago, at 10:20 UTC
Wind 16 kt from the South
Temperature 15°C
Humidity 59%
Pressure 992 hPa
Visibility 10 km or more
Few clouds at a height of 2400 ft

METAR: EGNV 091020Z 19016KT 9999 FEW024 15/07 Q0992

Time: 11:54 (10:54 UTC)

Forecast

The report was made 2 hours and 53 minutes ago, at 08:01 UTC
Forecast valid from 09 at 09 UTC to 09 at 18 UTC
Wind 12 kt from the South/Southwest
Visibility 10 km or more
Scattered clouds at a height of 2500 ft
Probability 30% :
Temporary
from 09 at 14 UTC to 09 at 18 UTC
Visibility: 8000 m
light rain showers

TAF: EGNV 090801Z 0909/0918 20012KT 9999 SCT025 PROB30 TEMPO 0914/0918 8000 -SHRA

Weather observations and forecasts of more than 4000 airports (METAR and TAF reports).

The available stations are represented by yellow and red dots on the map.

Hover mouse over dot to see the name of the station.

Then click to see weather observations and forecasts.

To change the map : click on the green buttons with a black cross to zoom in, on the green button with a dash to zoom out, or on the green arrows for adjacent maps.


METAR-TAF: